Portada
METAR-TAF:

METAR-TAF

Aeropuertos :

Dhahran, Arabia Saudita

latitud: 26-16N, longitud: 050-09E, altitud: 26 m

Observación

El informe se hizo hace 50 minutos, a las 00:00 UTC
Viento 10 kt del oeste-noroeste
Temperatura 31°C
Humedad 52%
Presión 994 hPa
Visibilidad 10 km o más
sin nubes por debajo de 1500 m y sin presencia de cumulonimbus.

METAR: OEDR 070000Z 29010KT CAVOK 31/20 Q0994

Hora: 03:50 (00:50 UTC)

Pronóstico

El informe se hizo hace 4 horas y 20 minutos, a las 20:30 UTC
Pronóstico válido del 07 a las 00 UTC al 08 a las 06 UTC
Viento 12 kt del oeste
Visibilidad: 8000 m
Evolucionando progresivamente
del 07 a las 08 UTC al 07 a las 10 UTC
Viento 17 kt del norte-noreste

TAF: OEDR 062030Z 0700/0806 28012KT 8000 NSC BECMG 0708/0710 03017KT

Observaciones y pronósticos meteorológicos de más de 4000 aeropuertos (mensajes METAR y TAF).

Los puntos amarillos y rojos representan las estaciones disponibles.

Ponga el ratón en el punto deseado para ver el nombre de la estación.

Haga clic para ver las observaciones y los pronósticos meteorológicos.

Para cambiar el mapa : haga clic en los botones verdes con una cruz de color negro para hacer un zoom, en el botón verde con un guión para alejar o en las flechas verdes para mapas adyacentes.


METAR-TAF: